Kennells Beach, North Carolina
Current Conditions -  °F | °C
As of 4:54 PM on Saturday 25 Oct 2014 (Local Time) from KEWN Reporting Station
Clear Clear  
Wind Chill: 74°   Ceiling: Unl
Heat Index: 74°   Visibility: 10mi
Dew Point: 46°   Wind: 8mph
Humidity: 37%   Direction: 260°W
Pressure: 29.9"   Gusts: NA
Location:  35.1354°N, 76.8853°W
Report Text: KEWN 252054Z 26007KT 10SM CLR 23/08 A2990 RMK AO2 SLP125 T02330078 55013
Loading
Personal Weather Stations






























Interactive Weather Map New forecast layout! Learn more

10-Day Weather Forecast

Advertisements
Track Severe Weather on mobile